Time;durP1;ratioP1;P1;durP2;ratioP2;P2;SDS_P1;SDS_P2;PMS_P1;PMS_P2;Temp;Humidity;BMP_temperature;BMP_pressure;BME280_temperature;BME280_humidity;BME280_pressure;Samples;Min_cycle;Max_cycle;Signal;HPM_P1;HPM_P2
2022/11/17 00:00:36;;;;;;;9.43;8.05;;;;;;;1.26;100.00;98817.08;1760545;80;21138;-77
2022/11/17 00:03:02;;;;;;;6.78;6.17;;;;;;;1.24;100.00;98825.76;1755234;81;21574;-79
2022/11/17 00:05:29;;;;;;;7.62;6.80;;;;;;;1.31;100.00;98824.38;1763308;80;21061;-76
2022/11/17 00:07:56;;;;;;;8.18;7.47;;;;;;;1.27;100.00;98823.19;1786628;80;20970;-77
2022/11/17 00:10:23;;;;;;;8.35;7.28;;;;;;;1.23;100.00;98824.12;1786758;80;20991;-77
2022/11/17 00:15:36;;;;;;;8.53;6.80;;;;;;;1.23;100.00;98816.69;1783023;80;20950;-69
2022/11/17 00:23:47;;;;;;;9.80;8.83;;;;;;;1.23;100.00;98805.59;1785437;80;20983;-75
2022/11/17 00:26:19;;;;;;;10.85;9.75;;;;;;;1.22;100.00;98808.44;1734247;81;21260;-73
2022/11/17 00:28:48;;;;;;;9.90;8.90;;;;;;;1.16;100.00;98792.06;1755411;81;21052;-73
2022/11/17 00:34:20;;;;;;;11.68;8.73;;;;;;;1.11;100.00;98797.18;1755281;81;20966;-70
2022/11/17 00:36:49;;;;;;;9.63;8.60;;;;;;;1.09;100.00;98797.41;1775839;80;21077;-74
2022/11/17 00:39:17;;;;;;;9.18;8.28;;;;;;;1.08;100.00;98791.81;1786632;80;21100;-76
2022/11/17 00:41:44;;;;;;;9.50;8.45;;;;;;;1.09;100.00;98791.30;1786079;80;21570;-84
2022/11/17 00:44:11;;;;;;;9.78;8.58;;;;;;;1.11;100.00;98809.09;1786168;80;20930;-83
2022/11/17 00:46:38;;;;;;;10.03;9.03;;;;;;;1.14;100.00;98796.78;1784994;80;20955;-84
2022/11/17 00:49:07;;;;;;;12.10;10.90;;;;;;;1.15;100.00;98799.19;1777756;80;21053;-82
2022/11/17 00:51:34;;;;;;;10.25;9.25;;;;;;;1.14;100.00;98792.30;1766281;80;21920;-82
2022/11/17 00:54:02;;;;;;;9.50;8.25;;;;;;;1.12;100.00;98790.36;1763673;80;21046;-87
2022/11/17 00:56:28;;;;;;;9.75;8.53;;;;;;;1.12;100.00;98797.48;1782072;80;20981;-84
2022/11/17 00:58:55;;;;;;;9.88;8.98;;;;;;;1.13;100.00;98801.77;1770587;80;20979;-79
2022/11/17 01:01:22;;;;;;;9.75;8.85;;;;;;;1.12;100.00;98803.59;1758251;80;21251;-71
2022/11/17 01:03:49;;;;;;;12.25;10.98;;;;;;;1.15;100.00;98805.03;1746720;80;21307;-69
2022/11/17 01:06:18;;;;;;;10.38;9.10;;;;;;;1.13;100.00;98795.96;1748664;80;22299;-71
2022/11/17 01:08:45;;;;;;;10.50;9.40;;;;;;;1.08;100.00;98790.48;1729431;80;21064;-72
2022/11/17 01:11:15;;;;;;;11.70;10.55;;;;;;;1.07;100.00;98790.17;1777367;80;20946;-73
2022/11/17 01:13:45;;;;;;;10.65;9.30;;;;;;;1.04;100.00;98791.12;1786764;80;21008;-74
2022/11/17 01:16:15;;;;;;;11.22;9.25;;;;;;;0.99;100.00;98795.72;1787865;80;21149;-78
2022/11/17 01:18:45;;;;;;;13.43;10.82;;;;;;;0.97;100.00;98790.31;1785007;80;21040;-80
2022/11/17 01:21:17;;;;;;;13.25;10.13;;;;;;;0.97;100.00;98800.40;1786377;80;21001;-84
2022/11/17 01:23:45;;;;;;;11.20;10.10;;;;;;;0.99;100.00;98807.63;1760160;80;21509;-77
2022/11/17 01:26:14;;;;;;;12.18;10.50;;;;;;;1.03;100.00;98805.37;1788171;80;21313;-76
2022/11/17 01:28:41;;;;;;;12.90;11.15;;;;;;;1.02;100.00;98798.45;1786908;80;21135;-82
2022/11/17 01:31:12;;;;;;;10.70;9.60;;;;;;;0.99;100.00;98788.28;1788210;80;21065;-74
2022/11/17 01:33:39;;;;;;;12.45;11.08;;;;;;;0.95;100.00;98791.88;1788040;80;21005;-79
2022/11/17 01:36:12;;;;;;;11.55;10.38;;;;;;;0.87;100.00;98789.44;1787816;80;22187;-71
2022/11/17 01:38:39;;;;;;;11.60;10.40;;;;;;;0.84;100.00;98800.45;1748817;81;21064;-70
2022/11/17 01:41:07;;;;;;;12.40;11.18;;;;;;;0.85;100.00;98792.83;1743996;82;21165;-70
2022/11/17 01:43:43;;;;;;;12.25;10.88;;;;;;;0.84;100.00;98801.78;1743568;81;21493;-76
2022/11/17 01:46:34;;;;;;;14.33;11.88;;;;;;;0.82;100.00;98791.91;1756094;80;21012;-69
2022/11/17 01:49:19;;;;;;;13.22;11.83;;;;;;;0.77;100.00;98808.41;1752403;80;20973;-74
2022/11/17 01:51:51;;;;;;;16.30;12.60;;;;;;;0.71;100.00;98805.30;1748719;80;21030;-72
2022/11/17 01:54:20;;;;;;;12.95;11.68;;;;;;;0.73;100.00;98807.20;1759046;80;21974;-73
2022/11/17 01:56:51;;;;;;;10.95;9.28;;;;;;;0.77;100.00;98803.63;1765920;80;21037;-70
2022/11/17 01:59:31;;;;;;;11.75;10.60;;;;;;;0.75;100.00;98799.88;1754125;80;21002;-75
2022/11/17 02:01:57;;;;;;;12.07;10.78;;;;;;;0.73;100.00;98805.06;1778684;80;22310;-77
2022/11/17 02:04:46;;;;;;;11.28;10.03;;;;;;;0.69;100.00;98799.89;1778962;80;21022;-80
2022/11/17 02:07:25;;;;;;;12.18;10.98;;;;;;;0.70;100.00;98810.78;1778791;80;21088;-82
2022/11/17 02:09:53;;;;;;;12.00;10.68;;;;;;;0.63;100.00;98808.14;1770922;80;21019;-85
2022/11/17 02:12:21;;;;;;;11.10;10.00;;;;;;;0.65;100.00;98810.59;1779457;80;20918;-87
2022/11/17 02:14:49;;;;;;;11.43;10.32;;;;;;;0.64;100.00;98803.67;1779100;80;21042;-82
2022/11/17 02:17:17;;;;;;;13.48;12.07;;;;;;;0.61;100.00;98809.39;1777957;80;21015;-83
2022/11/17 02:19:44;;;;;;;13.15;11.75;;;;;;;0.61;100.00;98810.70;1778460;80;21124;-66
2022/11/17 02:22:50;;;;;;;15.35;13.13;;;;;;;0.52;100.00;98807.48;1732063;82;21005;-66
2022/11/17 02:25:34;;;;;;;10.53;9.43;;;;;;;0.52;100.00;98815.92;1769352;80;20974;-67
2022/11/17 02:28:21;;;;;;;12.05;10.68;;;;;;;0.54;100.00;98815.19;1773999;80;21041;-64
2022/11/17 02:31:10;;;;;;;12.98;10.82;;;;;;;0.58;100.00;98816.39;1723785;82;21081;-65
2022/11/17 02:33:54;;;;;;;11.48;10.28;;;;;;;0.59;100.00;98814.06;1770410;80;22009;-66
2022/11/17 02:36:39;;;;;;;11.05;9.90;;;;;;;0.54;100.00;98805.93;1779228;80;21550;-68
2022/11/17 02:39:32;;;;;;;11.28;10.08;;;;;;;0.49;100.00;98801.77;1777646;80;21035;-72
2022/11/17 02:42:07;;;;;;;11.68;10.48;;;;;;;0.47;100.00;98802.50;1779451;80;21129;-72
2022/11/17 02:44:56;;;;;;;13.55;11.53;;;;;;;0.44;100.00;98811.64;1779716;80;21007;-74
2022/11/17 02:47:29;;;;;;;11.70;10.50;;;;;;;0.54;100.00;98809.39;1754210;81;21872;-72
2022/11/17 02:50:02;;;;;;;12.50;10.93;;;;;;;0.62;100.00;98815.80;1724712;82;20984;-68
2022/11/17 02:52:29;;;;;;;12.28;10.72;;;;;;;0.62;100.00;98818.45;1715882;82;20987;-68
2022/11/17 02:55:02;;;;;;;12.58;11.20;;;;;;;0.59;100.00;98818.03;1735939;82;21010;-69
2022/11/17 02:57:34;;;;;;;12.40;11.20;;;;;;;0.54;100.00;98823.94;1712033;82;26616;-72
2022/11/17 03:00:07;;;;;;;12.35;10.98;;;;;;;0.53;100.00;98817.02;1717553;82;21168;-75
2022/11/17 03:02:43;;;;;;;11.73;10.53;;;;;;;0.54;100.00;98817.33;1727485;82;21500;-75
2022/11/17 03:05:21;;;;;;;13.53;11.00;;;;;;;0.59;100.00;98809.58;1721056;82;21718;-74
2022/11/17 03:08:22;;;;;;;9.70;8.73;;;;;;;0.62;100.00;98807.05;1733921;82;20924;-74
2022/11/17 03:11:01;;;;;;;12.98;10.48;;;;;;;0.65;100.00;98812.73;1705804;84;21508;-76
2022/11/17 03:13:46;;;;;;;11.88;10.15;;;;;;;0.55;100.00;98814.17;1725566;82;21126;-72
2022/11/17 03:16:25;;;;;;;11.43;10.28;;;;;;;0.44;100.00;98812.97;1734820;82;21498;-69
2022/11/17 03:19:06;;;;;;;11.75;10.55;;;;;;;0.40;100.00;98809.12;1732555;82;20984;-69
2022/11/17 03:21:47;;;;;;;14.58;11.63;;;;;;;0.37;100.00;98813.00;1733487;82;20992;-76
2022/11/17 03:24:21;;;;;;;12.13;10.88;;;;;;;0.38;100.00;98805.34;1717503;82;21536;-71
2022/11/17 03:26:54;;;;;;;12.93;10.75;;;;;;;0.38;100.00;98815.14;1705067;82;21216;-71
2022/11/17 03:29:23;;;;;;;13.03;11.48;;;;;;;0.37;100.00;98814.83;1705503;82;21781;-67
2022/11/17 03:31:52;;;;;;;14.05;10.70;;;;;;;0.30;100.00;98812.69;1703494;84;21882;-65
2022/11/17 03:34:20;;;;;;;12.10;10.90;;;;;;;0.28;100.00;98817.38;1732578;82;20967;-66
2022/11/17 03:36:50;;;;;;;13.45;12.10;;;;;;;0.29;100.00;98825.09;1730467;82;21625;-72
2022/11/17 03:39:25;;;;;;;13.03;11.10;;;;;;;0.32;100.00;98824.70;1725656;82;21266;-73
2022/11/17 03:41:57;;;;;;;11.93;10.48;;;;;;;0.33;100.00;98812.30;1716746;82;20931;-74
2022/11/17 03:44:24;;;;;;;12.33;10.63;;;;;;;0.31;100.00;98811.17;1683585;85;21014;-75
2022/11/17 03:46:51;;;;;;;14.07;12.50;;;;;;;0.26;100.00;98813.61;1707682;82;21366;-77
2022/11/17 03:49:44;;;;;;;14.20;12.18;;;;;;;0.23;100.00;98816.68;1711096;82;21545;-71
2022/11/17 03:52:11;;;;;;;15.23;12.73;;;;;;;0.25;100.00;98808.52;1767278;80;21223;-72
2022/11/17 03:54:37;;;;;;;12.93;10.88;;;;;;;0.26;100.00;98816.25;1746784;80;20980;-76
2022/11/17 03:57:30;;;;;;;14.43;12.93;;;;;;;0.26;100.00;98805.68;1768130;80;20970;-72
2022/11/17 04:00:07;;;;;;;17.23;14.20;;;;;;;0.29;100.00;98805.77;1772256;80;20990;-72
2022/11/17 04:02:42;;;;;;;12.53;11.20;;;;;;;0.35;100.00;98811.56;1788313;80;21675;-74
2022/11/17 04:05:12;;;;;;;12.85;11.50;;;;;;;0.37;100.00;98802.92;1761824;80;21791;-75
2022/11/17 04:07:41;;;;;;;11.53;10.33;;;;;;;0.31;100.00;98787.88;1788106;80;21007;-72
2022/11/17 04:10:10;;;;;;;13.88;12.18;;;;;;;0.29;100.00;98799.16;1788223;80;21597;-72
2022/11/17 04:18:07;;;;;;;16.12;14.40;;;;;;;0.24;100.00;98799.77;1756001;81;21356;-83
2022/11/17 04:20:37;;;;;;;13.08;11.78;;;;;;;0.23;100.00;98790.75;1778805;80;21007;-82
2022/11/17 04:23:12;;;;;;;13.45;11.38;;;;;;;0.28;100.00;98800.20;1787206;80;20993;-82
2022/11/17 04:28:40;;;;;;;17.62;14.40;;;;;;;0.29;100.00;98801.30;1761913;80;21100;-74
2022/11/17 04:31:21;;;;;;;18.77;14.15;;;;;;;0.29;100.00;98801.80;1756722;81;21402;-78
2022/11/17 04:33:56;;;;;;;14.83;12.37;;;;;;;0.22;100.00;98801.83;1757346;81;20997;-80
2022/11/17 04:36:27;;;;;;;11.93;10.68;;;;;;;0.25;100.00;98800.59;1786434;80;21006;-78
2022/11/17 04:38:57;;;;;;;13.18;11.88;;;;;;;0.27;100.00;98798.06;1756722;81;21021;-78
2022/11/17 04:44:15;;;;;;;13.85;12.37;;;;;;;0.27;100.00;98790.63;1765425;80;21153;-82
2022/11/17 04:46:45;;;;;;;15.28;12.28;;;;;;;0.28;100.00;98794.91;1787243;80;21517;-82
2022/11/17 04:49:13;;;;;;;14.68;11.05;;;;;;;0.31;100.00;98802.42;1787097;80;21015;-82
2022/11/17 04:51:40;;;;;;;13.60;11.70;;;;;;;0.32;100.00;98800.09;1787799;80;21041;-81
2022/11/17 04:54:08;;;;;;;15.55;13.38;;;;;;;0.31;100.00;98797.95;1788348;80;21538;-81
2022/11/17 04:56:36;;;;;;;15.43;12.10;;;;;;;0.34;100.00;98789.59;1788152;80;20997;-76
2022/11/17 04:59:03;;;;;;;16.77;12.10;;;;;;;0.33;100.00;98791.95;1783960;80;20958;-82
2022/11/17 05:01:32;;;;;;;23.22;12.75;;;;;;;0.31;100.00;98786.55;1787247;80;21073;-79
2022/11/17 05:04:05;;;;;;;16.97;13.98;;;;;;;0.26;100.00;98792.97;1788464;80;20979;-84
2022/11/17 05:06:37;;;;;;;20.07;13.70;;;;;;;0.19;100.00;98786.36;1787601;80;21057;-83
2022/11/17 05:09:10;;;;;;;15.85;13.72;;;;;;;0.15;100.00;98782.50;1786980;80;21114;-86
2022/11/17 05:14:23;;;;;;;23.95;18.90;;;;;;;0.24;100.00;98800.31;1788355;80;21503;-77
2022/11/17 05:17:05;;;;;;;24.75;16.93;;;;;;;0.21;100.00;98809.45;1784798;80;21578;-77
2022/11/17 05:19:35;;;;;;;25.72;20.12;;;;;;;0.20;100.00;98813.61;1759093;80;21057;-79
2022/11/17 05:22:01;;;;;;;29.10;20.35;;;;;;;0.14;100.00;98818.41;1777910;80;21125;-79
2022/11/17 05:24:28;;;;;;;26.00;17.80;;;;;;;0.09;100.00;98820.86;1788219;80;20966;-78
2022/11/17 05:26:54;;;;;;;24.27;16.93;;;;;;;0.06;100.00;98820.73;1787223;80;21001;-80
2022/11/17 05:29:21;;;;;;;21.85;16.87;;;;;;;0.04;100.00;98818.01;1761230;80;20989;-77
2022/11/17 05:31:49;;;;;;;25.60;18.20;;;;;;;0.05;100.00;98826.25;1788446;80;21017;-80
2022/11/17 05:34:16;;;;;;;25.23;16.57;;;;;;;0.00;100.00;98822.89;1763561;80;21077;-80
2022/11/17 05:36:43;;;;;;;19.70;15.50;;;;;;;0.00;100.00;98813.11;1765571;80;21083;-79
2022/11/17 05:39:09;;;;;;;20.60;15.38;;;;;;;-0.03;100.00;98832.03;1745782;80;21032;-78
2022/11/17 05:41:36;;;;;;;26.37;17.77;;;;;;;0.01;100.00;98828.47;1787839;80;21527;-79
2022/11/17 05:44:03;;;;;;;19.80;15.50;;;;;;;0.02;100.00;98826.64;1779852;80;21058;-78
2022/11/17 05:46:30;;;;;;;20.57;15.68;;;;;;;0.01;100.00;98831.11;1786670;80;21039;-77
2022/11/17 05:48:56;;;;;;;24.02;15.93;;;;;;;-0.05;100.00;98830.08;1787315;80;20994;-78
2022/11/17 05:51:23;;;;;;;21.00;16.67;;;;;;;-0.06;100.00;98843.02;1785415;80;20972;-79
2022/11/17 05:53:50;;;;;;;23.98;17.37;;;;;;;-0.05;100.00;98843.83;1778250;80;20954;-81
2022/11/17 05:56:40;;;;;;;22.15;17.15;;;;;;;0.00;100.00;98846.68;1787387;80;20935;-79
2022/11/17 05:59:27;;;;;;;22.30;15.88;;;;;;;-0.07;100.00;98840.56;1787663;80;21317;-78
2022/11/17 06:02:11;;;;;;;22.93;16.25;;;;;;;-0.14;100.00;98848.48;1739949;82;21026;-81
2022/11/17 06:04:40;;;;;;;22.05;18.02;;;;;;;-0.17;100.00;98859.96;1738908;82;22303;-79
2022/11/17 06:07:06;;;;;;;20.87;15.07;;;;;;;-0.19;100.00;98868.08;1707999;83;21525;-79
2022/11/17 06:09:34;;;;;;;24.97;19.10;;;;;;;-0.16;100.00;98872.16;1788317;80;21557;-79
2022/11/17 06:12:01;;;;;;;25.48;18.57;;;;;;;-0.15;100.00;98874.62;1772419;80;21868;-81
2022/11/17 06:14:27;;;;;;;21.80;14.30;;;;;;;-0.11;100.00;98874.52;1767108;80;21533;-81
2022/11/17 06:16:57;;;;;;;22.00;16.37;;;;;;;-0.13;100.00;98871.75;1786984;80;21099;-84
2022/11/17 06:19:32;;;;;;;22.45;16.32;;;;;;;-0.18;100.00;98864.94;1788315;80;21033;-82
2022/11/17 06:21:59;;;;;;;22.03;16.27;;;;;;;-0.25;100.00;98863.63;1788166;80;21022;-84
2022/11/17 06:24:26;;;;;;;20.12;14.25;;;;;;;-0.26;100.00;98858.03;1788072;80;21053;-81
2022/11/17 06:26:53;;;;;;;25.95;15.95;;;;;;;-0.22;100.00;98860.56;1766571;80;21001;-84
2022/11/17 06:29:19;;;;;;;22.30;16.40;;;;;;;-0.23;100.00;98851.52;1744578;82;21033;-83
2022/11/17 06:31:46;;;;;;;23.53;17.77;;;;;;;-0.22;100.00;98841.25;1752987;80;21255;-82
2022/11/17 06:34:13;;;;;;;24.43;17.33;;;;;;;-0.23;100.00;98835.66;1788039;80;20911;-87
2022/11/17 06:36:40;;;;;;;20.57;15.90;;;;;;;-0.24;100.00;98825.59;1789292;80;21290;-84
2022/11/17 06:39:07;;;;;;;22.70;17.40;;;;;;;-0.22;100.00;98822.26;1788980;80;20969;-85
2022/11/17 06:41:35;;;;;;;18.40;15.43;;;;;;;-0.16;100.00;98814.03;1782465;80;21073;-83
2022/11/17 06:44:01;;;;;;;22.77;17.45;;;;;;;-0.20;100.00;98803.06;1744226;81;21048;-83
2022/11/17 06:46:36;;;;;;;21.68;16.90;;;;;;;-0.26;100.00;98797.27;1744121;82;21037;-83
2022/11/17 06:48:57;;;;;;;21.20;17.67;;;;;;;-0.27;100.00;98800.91;1737490;80;21766;-81
2022/11/17 06:51:24;;;;;;;20.00;15.58;;;;;;;-0.25;100.00;98800.72;1781285;79;20939;-82
2022/11/17 06:53:52;;;;;;;23.27;17.30;;;;;;;-0.31;100.00;98817.37;1775483;80;20998;-80
2022/11/17 06:56:19;;;;;;;19.90;15.43;;;;;;;-0.35;100.00;98815.65;1788939;80;21645;-79
2022/11/17 06:58:46;;;;;;;21.90;16.57;;;;;;;-0.35;100.00;98818.29;1783984;80;21576;-80
2022/11/17 07:01:13;;;;;;;20.13;15.63;;;;;;;-0.34;100.00;98813.31;1763897;80;21253;-82
2022/11/17 07:03:41;;;;;;;20.33;16.07;;;;;;;-0.30;100.00;98807.93;1748881;80;21029;-83
2022/11/17 07:06:09;;;;;;;21.00;14.97;;;;;;;-0.28;100.00;98812.99;1767960;80;21034;-82
2022/11/17 07:08:36;;;;;;;19.07;14.63;;;;;;;-0.28;100.00;98807.70;1781125;80;21624;-80
2022/11/17 07:11:09;;;;;;;17.42;15.28;;;;;;;-0.29;100.00;98805.61;1773656;80;21071;-80
2022/11/17 10:35:23;;;;;;;25.67;17.90;;;;;;;-0.39;100.00;98730.41;1738108;78;29919;-72
2022/11/17 10:38:19;;;;;;;25.63;17.93;;;;;;;-0.37;100.00;98717.29;1713747;82;21491;-72
2022/11/17 10:40:48;;;;;;;19.27;15.73;;;;;;;-0.32;100.00;98726.74;1728493;82;22100;-71
2022/11/17 10:43:31;;;;;;;22.30;16.97;;;;;;;-0.28;100.00;98725.81;1743861;82;21056;-73
2022/11/17 10:46:15;;;;;;;20.63;15.87;;;;;;;-0.25;100.00;98725.43;1742052;82;21544;-75
2022/11/17 10:49:02;;;;;;;21.42;15.63;;;;;;;-0.21;100.00;98725.32;1742896;82;21014;-71
2022/11/17 10:51:32;;;;;;;20.73;16.63;;;;;;;-0.11;100.00;98733.65;1730612;81;21077;-70
2022/11/17 10:54:19;;;;;;;19.23;15.03;;;;;;;-0.08;100.00;98737.19;1737907;81;21110;-74
2022/11/17 10:56:52;;;;;;;21.70;17.37;;;;;;;-0.02;100.00;98739.84;1754181;81;21003;-80
2022/11/17 10:59:34;;;;;;;20.07;16.63;;;;;;;0.06;100.00;98720.30;1752453;81;20959;-85
2022/11/17 11:02:36;;;;;;;26.53;19.43;;;;;;;0.09;100.00;98727.83;1748419;81;21039;-68
2022/11/17 11:05:09;;;;;;;22.87;17.55;;;;;;;0.06;100.00;98724.77;1727584;81;26373;-69
2022/11/17 11:07:37;;;;;;;;;;;;;;;0.10;100.00;98711.44;1732415;81;21095;-69
2022/11/17 11:10:23;;;;;;;20.63;16.70;;;;;;;0.11;99.88;98715.20;1754825;81;20169;-69
2022/11/17 11:12:59;;;;;;;21.03;17.90;;;;;;;0.12;99.95;98714.70;1753298;81;20944;-69
2022/11/17 11:15:33;;;;;;;22.33;18.70;;;;;;;0.14;100.00;98716.64;1755529;81;21336;-68
2022/11/17 11:18:00;;;;;;;22.27;15.03;;;;;;;0.18;100.00;98719.17;1755694;81;21050;-69
2022/11/17 11:20:34;;;;;;;23.03;17.57;;;;;;;0.24;100.00;98714.38;1755753;81;21118;-71
2022/11/17 11:23:22;;;;;;;31.43;19.83;;;;;;;0.24;99.51;98723.64;1757002;80;20984;-69
2022/11/17 11:25:53;;;;;;;18.53;15.70;;;;;;;0.18;99.43;98726.59;1753695;81;21044;-73
2022/11/17 11:28:55;;;;;;;20.23;16.93;;;;;;;0.23;99.66;98720.17;1754038;81;21087;-73
2022/11/17 11:31:31;;;;;;;17.27;15.07;;;;;;;0.27;99.38;98724.02;1755847;81;21164;-73
2022/11/17 11:34:24;;;;;;;25.57;19.02;;;;;;;0.25;98.87;98718.63;1741603;80;21347;-78
2022/11/17 11:37:05;;;;;;;25.43;18.73;;;;;;;0.24;98.45;98726.28;1768133;81;20887;-76
2022/11/17 11:39:57;;;;;;;24.43;19.87;;;;;;;0.25;98.48;98719.95;1733919;81;21294;-73
2022/11/17 11:42:56;;;;;;;22.97;18.57;;;;;;;0.24;98.13;98719.13;1725544;81;21325;-70
2022/11/17 11:45:34;;;;;;;24.72;18.23;;;;;;;0.21;98.16;98711.63;1736141;81;21005;-72
2022/11/17 11:48:09;;;;;;;21.00;16.55;;;;;;;0.21;98.35;98708.17;1735021;82;21763;-73
2022/11/17 11:50:59;;;;;;;22.22;17.62;;;;;;;0.25;98.52;98706.22;1728036;82;21546;-73
2022/11/17 11:53:48;;;;;;;17.73;14.57;;;;;;;0.28;98.23;98702.37;1737454;81;21012;-75
2022/11/17 11:56:34;;;;;;;14.50;12.70;;;;;;;0.25;97.88;98708.86;1745460;81;20967;-73
2022/11/17 11:59:27;;;;;;;23.30;18.23;;;;;;;0.25;97.77;98710.19;1763786;81;21519;-75
2022/11/17 12:02:11;;;;;;;17.02;14.87;;;;;;;0.24;97.26;98713.06;1751868;81;21591;-72
2022/11/17 12:04:46;;;;;;;23.35;15.65;;;;;;;0.18;96.69;98716.52;1752089;81;21029;-69
2022/11/17 12:07:27;;;;;;;21.80;15.40;;;;;;;0.13;96.59;98718.97;1752292;81;21523;-71
2022/11/17 12:10:24;;;;;;;22.13;16.63;;;;;;;0.11;96.68;98712.56;1751851;81;21618;-70
2022/11/17 12:12:50;;;;;;;23.57;15.17;;;;;;;0.15;96.93;98710.31;1750394;81;21083;-68
2022/11/17 12:15:25;;;;;;;19.65;15.30;;;;;;;0.17;96.86;98711.74;1752199;81;21338;-71
2022/11/17 12:18:02;;;;;;;19.47;14.47;;;;;;;0.15;96.75;98708.98;1724601;81;21616;-81
2022/11/17 12:20:43;;;;;;;20.65;15.30;;;;;;;0.12;96.71;98706.27;1769115;81;21014;-77
2022/11/17 12:23:50;;;;;;;17.50;13.28;;;;;;;0.14;96.67;98700.78;1770948;80;20954;-72
2022/11/17 12:26:27;;;;;;;18.50;14.73;;;;;;;0.12;96.47;98701.48;1766112;80;21108;-73
2022/11/17 12:29:26;;;;;;;21.90;14.60;;;;;;;0.09;96.60;98691.34;1770871;81;21068;-71
2022/11/17 12:32:00;;;;;;;20.30;16.15;;;;;;;0.06;96.57;98685.12;1740899;81;21066;-73
2022/11/17 12:34:34;;;;;;;17.50;14.53;;;;;;;0.04;96.81;98684.03;1750532;81;20952;-72
2022/11/17 12:37:28;;;;;;;17.92;14.15;;;;;;;0.05;96.86;98684.84;1731245;81;21005;-73
2022/11/17 12:40:05;;;;;;;21.73;16.00;;;;;;;0.03;96.89;98682.40;1726399;82;21067;-73
2022/11/17 12:42:34;;;;;;;19.73;17.37;;;;;;;0.02;96.60;98681.27;1742193;82;21087;-73
2022/11/17 12:45:09;;;;;;;19.02;15.90;;;;;;;-0.02;96.60;98694.91;1740229;81;20952;-75
2022/11/17 12:47:39;;;;;;;20.30;14.13;;;;;;;-0.05;96.49;98694.52;1717746;81;21072;-75
2022/11/17 12:50:41;;;;;;;16.07;14.37;;;;;;;-0.10;96.56;98695.64;1740384;82;21036;-67
2022/11/17 12:53:13;;;;;;;19.32;15.10;;;;;;;-0.14;96.22;98697.86;1765153;81;21009;-67
2022/11/17 12:55:48;;;;;;;15.93;14.03;;;;;;;-0.20;96.19;98700.53;1730620;81;21185;-71
2022/11/17 12:58:46;;;;;;;20.23;13.73;;;;;;;-0.17;96.47;98694.32;1745588;82;20948;-84
2022/11/17 13:02:00;;;;;;;22.67;16.93;;;;;;;-0.13;96.68;98680.18;1706823;83;21013;-84
2022/11/17 13:04:38;;;;;;;17.27;15.00;;;;;;;-0.13;96.49;98681.50;1714547;82;21331;-82
2022/11/17 13:07:06;;;;;;;25.13;15.63;;;;;;;-0.10;96.69;98689.04;1748891;81;21584;-86
2022/11/17 13:09:35;;;;;;;21.93;16.83;;;;;;;-0.05;96.76;98684.73;1737391;81;20936;-79
2022/11/17 13:12:05;;;;;;;19.93;13.87;;;;;;;-0.09;96.62;98690.64;1763152;81;20974;-79
2022/11/17 13:14:35;;;;;;;18.17;16.20;;;;;;;-0.17;97.11;98678.47;1736907;81;21036;-84
2022/11/17 13:17:02;;;;;;;17.80;13.97;;;;;;;-0.21;96.96;98677.26;1735971;82;21078;-83
2022/11/17 13:19:36;;;;;;;16.77;14.37;;;;;;;-0.18;96.86;98682.63;1735632;81;21055;-79
2022/11/17 13:22:15;;;;;;;19.30;15.00;;;;;;;-0.18;96.82;98672.88;1767713;81;21209;-83
2022/11/17 13:24:48;;;;;;;15.60;13.00;;;;;;;-0.21;96.57;98679.91;1767525;81;21638;-81
2022/11/17 13:27:24;;;;;;;14.55;12.78;;;;;;;-0.21;96.73;98671.98;1768256;81;21645;-84
2022/11/17 13:29:52;;;;;;;21.57;16.67;;;;;;;-0.19;96.82;98661.21;1767930;81;21672;-70
2022/11/17 13:32:22;;;;;;;20.50;14.67;;;;;;;-0.18;96.64;98660.98;1743840;81;21002;-70
2022/11/17 13:34:51;;;;;;;19.30;14.47;;;;;;;-0.16;96.58;98660.28;1770019;78;21547;-70
2022/11/17 13:37:23;;;;;;;17.03;14.73;;;;;;;-0.19;96.68;98658.03;1773089;80;21010;-69
2022/11/17 13:40:09;;;;;;;23.43;15.87;;;;;;;-0.18;96.46;98654.89;1763470;80;20935;-69
2022/11/17 13:42:35;;;;;;;22.47;16.50;;;;;;;-0.19;96.42;98654.61;1771686;80;20914;-71
2022/11/17 13:45:03;;;;;;;19.40;15.30;;;;;;;-0.12;96.75;98654.07;1771721;80;21033;-71
2022/11/17 13:47:42;;;;;;;26.37;15.32;;;;;;;-0.08;96.88;98648.16;1773127;80;21774;-73
2022/11/17 13:50:32;;;;;;;24.20;15.03;;;;;;;-0.09;96.55;98646.53;1764076;79;20967;-68
2022/11/17 13:53:16;;;;;;;22.60;16.57;;;;;;;-0.10;96.56;98644.12;1769797;80;20915;-78
2022/11/17 13:55:45;;;;;;;18.80;13.47;;;;;;;-0.15;96.22;98648.70;1719624;82;20981;-82
2022/11/17 13:58:29;;;;;;;19.77;15.90;;;;;;;-0.17;96.39;98645.44;1746318;81;21028;-75
2022/11/17 14:00:56;;;;;;;19.23;14.03;;;;;;;-0.19;96.14;98641.40;1764112;81;21263;-78
2022/11/17 14:03:34;;;;;;;19.57;12.93;;;;;;;-0.22;96.01;98641.79;1759205;81;21505;-74
2022/11/17 14:06:11;;;;;;;19.60;13.70;;;;;;;-0.23;95.90;98647.58;1740243;81;21079;-67
2022/11/17 14:08:39;;;;;;;16.73;12.23;;;;;;;-0.22;95.95;98644.44;1764413;81;21557;-73
2022/11/17 14:11:14;;;;;;;18.23;12.87;;;;;;;-0.24;95.82;98638.02;1766138;81;21447;-80
2022/11/17 14:13:57;;;;;;;20.00;13.10;;;;;;;-0.24;95.83;98648.59;1763021;81;21119;-77
2022/11/17 14:16:29;;;;;;;20.43;14.63;;;;;;;-0.25;95.86;98649.63;1742224;81;21047;-75
2022/11/17 14:19:03;;;;;;;20.50;13.37;;;;;;;-0.27;96.03;98650.84;1752062;81;20941;-79
2022/11/17 14:21:31;;;;;;;17.27;14.23;;;;;;;-0.28;96.00;98651.34;1759144;81;21012;-74
2022/11/17 14:24:05;;;;;;;18.93;13.00;;;;;;;-0.27;96.07;98651.66;1764987;81;22461;-75
2022/11/17 14:26:32;;;;;;;16.13;14.03;;;;;;;-0.32;96.13;98654.61;1766312;81;21195;-77
2022/11/17 14:29:01;;;;;;;19.70;14.47;;;;;;;-0.31;96.29;98665.48;1756932;81;21023;-77
2022/11/17 14:31:29;;;;;;;17.87;14.77;;;;;;;-0.33;96.51;98664.86;1766269;81;21038;-77
2022/11/17 14:33:56;;;;;;;15.97;13.90;;;;;;;-0.35;96.80;98666.91;1763987;80;21335;-73
2022/11/17 14:36:24;;;;;;;19.93;13.47;;;;;;;-0.33;96.92;98664.36;1759940;81;21040;-75
2022/11/17 14:38:50;;;;;;;20.00;14.30;;;;;;;-0.32;96.94;98665.17;1748843;81;21327;-82
2022/11/17 14:41:18;;;;;;;14.47;12.93;;;;;;;-0.30;97.04;98667.93;1721619;83;21054;-74
2022/11/17 14:43:44;;;;;;;21.53;15.20;;;;;;;-0.27;97.07;98666.19;1744190;81;21023;-72
2022/11/17 14:46:19;;;;;;;17.27;13.23;;;;;;;-0.26;96.99;98658.56;1747063;81;21030;-79
2022/11/17 14:48:46;;;;;;;19.10;12.73;;;;;;;-0.25;96.93;98655.42;1748339;81;21024;-79
2022/11/17 14:51:13;;;;;;;19.63;13.13;;;;;;;-0.25;96.89;98640.89;1763947;81;21492;-71
2022/11/17 14:53:40;;;;;;;14.37;12.47;;;;;;;-0.28;96.41;98654.49;1745792;81;21075;-71
2022/11/17 14:56:08;;;;;;;17.70;11.30;;;;;;;-0.29;96.45;98652.89;1725471;82;21497;-73
2022/11/17 14:58:35;;;;;;;16.43;12.73;;;;;;;-0.28;96.46;98646.06;1735855;81;21199;-71
2022/11/17 15:01:23;;;;;;;18.13;13.23;;;;;;;-0.28;96.42;98652.66;1729836;80;21068;-74
2022/11/17 15:03:51;;;;;;;15.73;12.17;;;;;;;-0.28;96.44;98657.95;1720100;81;21189;-82
2022/11/17 15:06:18;;;;;;;14.83;12.40;;;;;;;-0.29;96.44;98653.71;1745069;81;21021;-79
2022/11/17 15:08:45;;;;;;;18.83;13.17;;;;;;;-0.29;96.63;98661.63;1748578;81;22162;-73
2022/11/17 15:11:16;;;;;;;13.60;10.90;;;;;;;-0.29;96.58;98659.50;1741161;81;20992;-75
2022/11/17 15:13:42;;;;;;;16.43;13.27;;;;;;;-0.31;96.39;98665.48;1712306;82;21053;-75
2022/11/17 15:16:09;;;;;;;16.17;12.50;;;;;;;-0.36;96.35;98662.14;1740689;81;21456;-77
2022/11/17 15:18:36;;;;;;;14.53;11.80;;;;;;;-0.40;96.31;98654.83;1730987;82;20980;-75
2022/11/17 15:21:08;;;;;;;15.83;12.57;;;;;;;-0.42;96.46;98656.34;1732364;80;20918;-75
2022/11/17 15:23:37;;;;;;;14.97;11.00;;;;;;;-0.40;96.67;98650.36;1717630;81;21077;-74
2022/11/17 15:26:05;;;;;;;15.37;13.30;;;;;;;-0.39;96.53;98651.99;1732618;80;21438;-79
2022/11/17 15:28:33;;;;;;;16.47;12.23;;;;;;;-0.40;96.44;98652.19;1740613;81;20964;-77
2022/11/17 15:31:12;;;;;;;15.07;11.83;;;;;;;-0.41;96.34;98664.58;1763564;81;21044;-74
2022/11/17 15:33:40;;;;;;;17.53;11.57;;;;;;;-0.35;96.54;98666.91;1721175;81;21129;-70
2022/11/17 15:36:10;;;;;;;20.10;11.43;;;;;;;-0.29;96.53;98663.45;1735911;80;21023;-73